Time,TemperatureF,DewpointF,PressureIn,WindDirection,WindDirectionDegrees,WindSpeedMPH,WindSpeedGustMPH,Humidity,HourlyPrecipIn,Conditions,Clouds,dailyrainin,SoftwareType,DateUTC
2013-06-11 00:01:00,57.7,55.1,29.97,North,0,0.0,7.6,91,0.00,,---,0.00,VWS V14.01,2013-06-11 04:01:00,
2013-06-11 00:06:00,57.7,55.1,29.96,SW,225,2.0,7.6,91,0.00,,---,0.00,VWS V14.01,2013-06-11 04:06:00,
2013-06-11 00:11:00,57.7,55.1,29.97,SSW,202,2.4,7.6,91,0.00,,---,0.00,VWS V14.01,2013-06-11 04:11:00,
2013-06-11 00:16:00,57.7,55.1,29.96,SSE,158,0.0,7.6,91,0.00,,---,0.00,VWS V14.01,2013-06-11 04:16:00,
2013-06-11 00:21:00,57.7,55.1,29.96,SSE,158,0.0,7.6,91,0.00,,---,0.00,VWS V14.01,2013-06-11 04:21:00,
2013-06-11 00:26:00,57.9,55.3,29.96,ESE,112,0.0,7.6,91,0.00,,---,0.00,VWS V14.01,2013-06-11 04:26:00,
2013-06-11 00:31:00,57.9,55.3,29.95,NE,45,0.0,7.6,91,0.00,,---,0.00,VWS V14.01,2013-06-11 04:31:00,
2013-06-11 00:36:00,57.9,55.3,29.94,SSW,202,0.0,7.6,91,0.00,,---,0.00,VWS V14.01,2013-06-11 04:36:00,
2013-06-11 00:41:00,57.9,55.3,29.94,ENE,68,0.0,7.6,91,0.00,,---,0.00,VWS V14.01,2013-06-11 04:41:00,
2013-06-11 00:46:00,57.9,55.3,29.94,SSE,158,1.3,7.6,91,0.00,,---,0.00,VWS V14.01,2013-06-11 04:46:00,
2013-06-11 00:51:00,57.9,55.6,29.94,SE,135,2.9,7.6,92,0.00,,---,0.00,VWS V14.01,2013-06-11 04:51:00,
2013-06-11 00:56:00,58.1,55.8,29.94,West,270,0.0,7.6,92,0.00,,---,0.00,VWS V14.01,2013-06-11 04:56:00,
2013-06-11 01:02:00,57.9,55.6,29.93,SE,135,0.0,7.6,92,0.00,,---,0.00,VWS V14.01,2013-06-11 05:02:00,
2013-06-11 01:07:00,57.9,55.6,29.93,SE,135,0.0,7.6,92,0.00,,---,0.00,VWS V14.01,2013-06-11 05:07:00,
2013-06-11 01:12:00,57.9,55.6,29.92,SSE,158,2.2,7.6,92,0.00,,---,0.00,VWS V14.01,2013-06-11 05:12:00,
2013-06-11 01:17:00,57.9,55.6,29.92,SSW,202,7.6,7.6,92,0.00,,---,0.00,VWS V14.01,2013-06-11 05:17:00,
2013-06-11 01:22:00,57.9,55.6,29.92,South,180,0.0,0.0,92,0.00,,---,0.00,VWS V14.01,2013-06-11 05:22:00,
2013-06-11 01:27:00,57.9,55.6,29.92,NE,45,0.0,0.0,92,0.00,,---,0.00,VWS V14.01,2013-06-11 05:27:00,
2013-06-11 01:32:00,57.9,55.6,29.91,SSE,158,1.3,1.3,92,0.00,,---,0.00,VWS V14.01,2013-06-11 05:32:00,
2013-06-11 01:37:00,57.7,55.4,29.90,East,90,0.0,0.0,92,0.00,,---,0.00,VWS V14.01,2013-06-11 05:37:00,
2013-06-11 01:42:00,57.7,55.1,29.90,SE,135,2.9,2.9,91,0.00,,---,0.00,VWS V14.01,2013-06-11 05:42:00,
2013-06-11 01:47:00,57.7,55.1,29.89,SSW,202,0.0,0.0,91,0.00,,---,0.00,VWS V14.01,2013-06-11 05:47:00,
2013-06-11 01:52:00,57.7,55.1,29.89,SSE,158,1.3,1.3,91,0.00,,---,0.00,VWS V14.01,2013-06-11 05:52:00,
2013-06-11 01:57:00,57.7,55.1,29.89,SE,135,4.4,4.4,91,0.00,,---,0.00,VWS V14.01,2013-06-11 05:57:00,
2013-06-11 02:02:00,57.7,55.1,29.89,NNW,338,1.3,1.3,91,0.00,,---,0.00,VWS V14.01,2013-06-11 06:02:00,
2013-06-11 02:07:00,57.7,55.1,29.88,NE,45,1.5,1.5,91,0.00,,---,0.00,VWS V14.01,2013-06-11 06:07:00,
2013-06-11 02:12:00,57.7,55.1,29.88,ENE,68,0.6,0.6,91,0.00,,---,0.00,VWS V14.01,2013-06-11 06:12:00,
2013-06-11 02:17:00,57.7,55.1,29.88,WSW,248,2.2,2.2,91,0.00,,---,0.00,VWS V14.01,2013-06-11 06:17:00,
2013-06-11 02:22:00,57.7,55.4,29.87,East,90,0.0,0.0,92,0.00,,---,0.00,VWS V14.01,2013-06-11 06:22:00,
2013-06-11 02:27:00,57.9,55.6,29.86,ESE,112,0.0,0.0,92,0.00,,---,0.00,VWS V14.01,2013-06-11 06:27:00,
2013-06-11 02:32:00,57.7,55.4,29.86,ENE,68,0.0,0.0,92,0.00,,---,0.00,VWS V14.01,2013-06-11 06:32:00,
2013-06-11 02:36:00,57.7,55.4,29.86,ENE,68,2.0,2.0,92,0.00,,---,0.00,VWS V14.01,2013-06-11 06:36:00,
2013-06-11 02:42:00,57.7,55.4,29.85,SSE,158,1.1,1.1,92,0.00,,---,0.00,VWS V14.01,2013-06-11 06:42:00,
2013-06-11 02:46:00,57.7,55.4,29.85,SSE,158,0.0,0.0,92,0.00,,---,0.00,VWS V14.01,2013-06-11 06:46:00,
2013-06-11 02:51:00,57.7,55.4,29.85,NW,315,1.5,1.5,92,0.00,,---,0.00,VWS V14.01,2013-06-11 06:51:00,
2013-06-11 02:56:00,57.7,55.4,29.84,ENE,68,0.0,0.0,92,0.00,,---,0.00,VWS V14.01,2013-06-11 06:56:00,
2013-06-11 03:01:00,57.7,55.4,29.84,SSE,158,1.7,1.7,92,0.00,,---,0.00,VWS V14.01,2013-06-11 07:01:00,
2013-06-11 03:06:00,57.7,55.4,29.83,North,0,3.1,3.1,92,0.00,,---,0.00,VWS V14.01,2013-06-11 07:06:00,
2013-06-11 03:11:00,57.7,55.4,29.83,SSW,202,2.4,2.4,92,0.00,,---,0.00,VWS V14.01,2013-06-11 07:11:00,
2013-06-11 03:16:00,57.7,55.4,29.83,West,270,1.5,1.5,92,0.00,,---,0.00,VWS V14.01,2013-06-11 07:16:00,
2013-06-11 03:21:00,57.9,55.6,29.83,SSE,158,0.0,0.0,92,0.00,,---,0.00,VWS V14.01,2013-06-11 07:21:00,
2013-06-11 03:26:00,57.9,55.6,29.82,ENE,68,0.0,0.0,92,0.00,,---,0.00,VWS V14.01,2013-06-11 07:26:00,
2013-06-11 03:32:00,57.9,55.6,29.82,NNE,22,2.4,2.4,92,0.00,,---,0.00,VWS V14.01,2013-06-11 07:32:00,
2013-06-11 03:37:00,57.9,55.6,29.81,WSW,248,0.0,0.0,92,0.00,,---,0.00,VWS V14.01,2013-06-11 07:37:00,
2013-06-11 03:42:00,58.1,55.8,29.81,SSW,202,0.0,0.0,92,0.00,,---,0.00,VWS V14.01,2013-06-11 07:42:00,
2013-06-11 03:47:00,58.1,55.8,29.81,WSW,248,0.0,0.0,92,0.00,,---,0.00,VWS V14.01,2013-06-11 07:47:00,
2013-06-11 03:52:00,58.1,55.8,29.81,ESE,112,1.5,1.5,92,0.00,,---,0.00,VWS V14.01,2013-06-11 07:52:00,
2013-06-11 03:57:00,58.2,55.9,29.80,SSE,158,2.0,2.0,92,0.00,,---,0.00,VWS V14.01,2013-06-11 07:57:00,
2013-06-11 04:02:00,58.2,55.9,29.80,ENE,68,0.0,0.0,92,0.00,,---,0.00,VWS V14.01,2013-06-11 08:02:00,
2013-06-11 04:07:00,58.2,55.9,29.81,SSW,202,0.0,0.0,92,0.00,,---,0.00,VWS V14.01,2013-06-11 08:07:00,
2013-06-11 04:12:00,58.2,55.9,29.80,ESE,112,0.0,0.0,92,0.00,,---,0.00,VWS V14.01,2013-06-11 08:12:00,
2013-06-11 05:01:00,58.4,56.1,29.76,SSW,202,0.0,0.0,92,0.00,,---,0.00,VWS V14.01,2013-06-11 09:01:00,
2013-06-11 05:06:00,58.6,56.3,29.75,NE,45,0.0,0.0,92,0.00,,---,0.00,VWS V14.01,2013-06-11 09:06:00,
2013-06-11 05:11:00,58.6,56.3,29.75,NE,45,0.0,0.0,92,0.00,,---,0.00,VWS V14.01,2013-06-11 09:11:00,
2013-06-11 05:16:00,58.6,56.3,29.75,SW,225,0.0,0.0,92,0.00,,---,0.00,VWS V14.01,2013-06-11 09:16:00,
2013-06-11 05:21:00,58.8,56.8,29.75,South,180,1.5,1.5,93,0.00,,---,0.00,VWS V14.01,2013-06-11 09:21:00,
2013-06-11 05:26:00,58.8,56.5,29.75,South,180,0.0,0.0,92,0.00,,---,0.00,VWS V14.01,2013-06-11 09:26:00,
2013-06-11 05:31:00,58.8,56.8,29.75,ENE,68,2.2,2.2,93,0.00,,---,0.00,VWS V14.01,2013-06-11 09:31:00,
2013-06-11 05:36:00,58.8,56.8,29.74,SSE,158,3.1,3.1,93,0.00,,---,0.00,VWS V14.01,2013-06-11 09:36:00,
2013-06-11 05:41:00,59.0,57.0,29.74,SSE,158,0.0,0.0,93,0.00,,---,0.00,VWS V14.01,2013-06-11 09:41:00,
2013-06-11 05:46:00,59.0,57.0,29.74,SSW,202,0.0,0.0,93,0.00,,---,0.00,VWS V14.01,2013-06-11 09:46:00,
2013-06-11 05:51:00,59.1,57.1,29.73,West,270,0.0,0.0,93,0.00,,---,0.00,VWS V14.01,2013-06-11 09:51:00,
2013-06-11 05:56:00,59.3,57.3,29.73,SSE,158,0.0,0.0,93,0.00,,---,0.00,VWS V14.01,2013-06-11 09:56:00,
2013-06-11 06:00:00,59.3,57.3,29.72,North,0,0.0,0.0,93,0.00,,---,0.00,VWS V14.01,2013-06-11 10:00:00,
2013-06-11 06:05:00,59.3,57.3,29.72,South,180,0.0,0.0,93,0.00,,---,0.00,VWS V14.01,2013-06-11 10:05:00,
2013-06-11 06:10:00,59.5,57.5,29.72,SSE,158,0.0,0.0,93,0.00,,---,0.00,VWS V14.01,2013-06-11 10:10:00,
2013-06-11 06:15:00,59.7,57.7,29.71,SE,135,0.0,0.0,93,0.00,,---,0.00,VWS V14.01,2013-06-11 10:15:00,
2013-06-11 06:20:00,59.9,57.9,29.72,WSW,248,0.0,0.0,93,0.00,,---,0.00,VWS V14.01,2013-06-11 10:20:00,
2013-06-11 06:25:00,59.9,57.9,29.72,SSW,202,0.0,0.0,93,0.00,,---,0.00,VWS V14.01,2013-06-11 10:25:00,
2013-06-11 06:30:00,59.9,57.9,29.71,SSW,202,0.0,0.0,93,0.00,,---,0.00,VWS V14.01,2013-06-11 10:30:00,
2013-06-11 06:35:00,60.0,58.0,29.71,SE,135,0.0,0.0,93,0.00,,---,0.00,VWS V14.01,2013-06-11 10:35:00,
2013-06-11 06:40:00,60.0,58.0,29.71,SSE,158,0.0,0.0,93,0.00,,---,0.00,VWS V14.01,2013-06-11 10:40:00,
2013-06-11 06:45:00,60.0,58.0,29.71,West,270,0.0,0.0,93,0.00,,---,0.00,VWS V14.01,2013-06-11 10:45:00,
2013-06-11 06:50:00,60.4,58.4,29.71,SSE,158,0.0,0.0,93,0.00,,---,0.00,VWS V14.01,2013-06-11 10:50:00,
2013-06-11 06:55:00,60.4,58.4,29.70,SSE,158,0.0,0.0,93,0.00,,---,0.00,VWS V14.01,2013-06-11 10:55:00,
2013-06-11 07:00:00,60.6,58.6,29.71,SW,225,0.0,0.0,93,0.00,,---,0.00,VWS V14.01,2013-06-11 11:00:00,
2013-06-11 07:05:00,60.6,58.6,29.70,East,90,0.0,0.0,93,0.00,,---,0.00,VWS V14.01,2013-06-11 11:05:00,
2013-06-11 07:10:00,60.8,58.8,29.70,South,180,0.0,0.0,93,0.00,,---,0.00,VWS V14.01,2013-06-11 11:10:00,
2013-06-11 07:15:00,60.9,58.9,29.70,ESE,112,0.0,0.0,93,0.00,,---,0.00,VWS V14.01,2013-06-11 11:15:00,
2013-06-11 07:20:00,61.1,59.1,29.70,ESE,112,0.0,0.0,93,0.00,,---,0.00,VWS V14.01,2013-06-11 11:20:00,
2013-06-11 07:25:00,61.5,59.5,29.70,SSE,158,0.0,0.0,93,0.00,,---,0.00,VWS V14.01,2013-06-11 11:25:00,
2013-06-11 07:30:00,61.5,59.5,29.70,SSE,158,0.0,0.0,93,0.00,,---,0.00,VWS V14.01,2013-06-11 11:30:00,
2013-06-11 07:35:00,61.7,59.7,29.69,SE,135,0.0,0.0,93,0.00,,---,0.00,VWS V14.01,2013-06-11 11:35:00,
2013-06-11 07:40:00,61.8,59.8,29.69,SSE,158,0.0,0.0,93,0.00,,---,0.00,VWS V14.01,2013-06-11 11:40:00,
2013-06-11 07:45:00,62.2,60.2,29.69,ESE,112,0.0,0.0,93,0.00,,---,0.00,VWS V14.01,2013-06-11 11:45:00,
2013-06-11 07:50:00,62.4,60.3,29.69,WSW,248,0.0,0.0,93,0.00,,---,0.00,VWS V14.01,2013-06-11 11:50:00,
2013-06-11 07:55:00,62.6,60.5,29.68,WNW,292,0.0,0.0,93,0.00,,---,0.00,VWS V14.01,2013-06-11 11:55:00,
2013-06-11 08:00:00,62.7,60.7,29.68,South,180,0.0,0.0,93,0.00,,---,0.00,VWS V14.01,2013-06-11 12:00:00,
2013-06-11 08:05:00,63.1,61.0,29.68,East,90,0.0,0.0,93,0.00,,---,0.00,VWS V14.01,2013-06-11 12:05:00,
2013-06-11 08:10:00,63.5,61.4,29.68,SW,225,0.0,0.0,93,0.00,,---,0.00,VWS V14.01,2013-06-11 12:10:00,
2013-06-11 08:15:00,63.8,61.7,29.67,SE,135,0.0,0.0,93,0.00,,---,0.00,VWS V14.01,2013-06-11 12:15:00,
2013-06-11 08:20:00,64.2,62.1,29.67,North,0,0.0,0.0,93,0.00,,---,0.00,VWS V14.01,2013-06-11 12:20:00,
2013-06-11 08:25:00,64.4,62.3,29.67,South,180,0.0,0.0,93,0.00,,---,0.00,VWS V14.01,2013-06-11 12:25:00,
2013-06-11 08:30:00,64.7,62.6,29.67,ENE,68,0.0,0.0,93,0.00,,---,0.00,VWS V14.01,2013-06-11 12:30:00,
2013-06-11 08:35:00,65.1,63.0,29.67,ESE,112,0.0,0.0,93,0.00,,---,0.00,VWS V14.01,2013-06-11 12:35:00,
2013-06-11 08:40:00,65.3,63.2,29.67,SSW,202,0.0,0.0,93,0.00,,---,0.00,VWS V14.01,2013-06-11 12:40:00,
2013-06-11 08:45:00,65.4,63.3,29.66,NNW,338,0.0,0.0,93,0.00,,---,0.00,VWS V14.01,2013-06-11 12:45:00,
2013-06-11 08:50:00,65.6,63.5,29.67,NE,45,0.0,0.0,93,0.00,,---,0.00,VWS V14.01,2013-06-11 12:50:00,
2013-06-11 08:55:00,65.8,63.7,29.67,SSW,202,0.0,0.0,93,0.00,,---,0.00,VWS V14.01,2013-06-11 12:55:00,
2013-06-11 09:00:00,66.0,63.9,29.66,North,0,0.0,0.0,93,0.00,,---,0.00,VWS V14.01,2013-06-11 13:00:00,
2013-06-11 09:05:00,66.2,64.1,29.66,SSE,158,0.0,0.0,93,0.00,,---,0.00,VWS V14.01,2013-06-11 13:05:00,
2013-06-11 09:10:00,66.3,64.2,29.66,SE,135,2.0,2.0,93,0.00,,---,0.00,VWS V14.01,2013-06-11 13:10:00,
2013-06-11 09:15:00,66.5,64.4,29.66,South,180,0.0,0.0,93,0.00,,---,0.00,VWS V14.01,2013-06-11 13:15:00,
2013-06-11 09:20:00,66.5,64.4,29.65,ESE,112,0.0,0.0,93,0.00,,---,0.00,VWS V14.01,2013-06-11 13:20:00,
2013-06-11 09:25:00,66.7,64.9,29.65,NW,315,0.0,0.0,94,0.00,,---,0.00,VWS V14.01,2013-06-11 13:25:00,
2013-06-11 09:30:00,67.1,65.3,29.65,WNW,292,0.0,0.0,94,0.00,,---,0.00,VWS V14.01,2013-06-11 13:30:00,
2013-06-11 09:35:00,67.2,65.4,29.65,ENE,68,0.0,0.0,94,0.00,,---,0.00,VWS V14.01,2013-06-11 13:35:00,
2013-06-11 09:40:00,67.2,65.4,29.65,SW,225,2.0,2.0,94,0.00,,---,0.00,VWS V14.01,2013-06-11 13:40:00,
2013-06-11 09:45:00,67.6,65.8,29.65,South,180,1.3,1.3,94,0.00,,---,0.00,VWS V14.01,2013-06-11 13:45:00,
2013-06-11 09:50:00,67.8,66.0,29.64,NNW,338,0.0,0.0,94,0.00,,---,0.00,VWS V14.01,2013-06-11 13:50:00,
2013-06-11 09:55:00,67.8,66.0,29.64,SSW,202,0.0,0.0,94,0.00,,---,0.00,VWS V14.01,2013-06-11 13:55:00,
2013-06-11 10:00:00,68.1,66.3,29.64,South,180,0.0,0.0,94,0.00,,---,0.00,VWS V14.01,2013-06-11 14:00:00,
2013-06-11 10:05:00,68.1,66.3,29.64,South,180,0.0,0.0,94,0.00,,---,0.00,VWS V14.01,2013-06-11 14:05:00,
2013-06-11 10:10:00,68.3,66.2,29.64,NE,45,1.1,1.1,93,0.00,,---,0.00,VWS V14.01,2013-06-11 14:10:00,
2013-06-11 10:15:00,68.5,66.4,29.64,NE,45,0.0,0.0,93,0.00,,---,0.00,VWS V14.01,2013-06-11 14:15:00,
2013-06-11 10:20:00,68.7,66.6,29.64,NW,315,0.0,0.0,93,0.00,,---,0.00,VWS V14.01,2013-06-11 14:20:00,
2013-06-11 10:25:00,68.7,66.6,29.64,North,0,0.0,0.0,93,0.00,,---,0.00,VWS V14.01,2013-06-11 14:25:00,
2013-06-11 10:30:00,68.7,66.6,29.64,SSE,158,0.0,0.0,93,0.00,,---,0.00,VWS V14.01,2013-06-11 14:30:00,
2013-06-11 10:35:00,68.7,66.6,29.64,SE,135,0.0,0.0,93,0.00,,---,0.00,VWS V14.01,2013-06-11 14:35:00,
2013-06-11 10:40:00,68.7,66.6,29.64,NNE,22,0.0,0.0,93,0.00,,---,0.00,VWS V14.01,2013-06-11 14:40:00,
2013-06-11 10:45:00,68.9,66.8,29.64,NNE,22,0.0,0.0,93,0.00,,---,0.00,VWS V14.01,2013-06-11 14:45:00,
2013-06-11 10:50:00,68.9,66.8,29.64,ENE,68,0.0,0.0,93,0.00,,---,0.00,VWS V14.01,2013-06-11 14:50:00,
2013-06-11 10:55:00,68.9,66.8,29.64,NNW,338,2.2,2.2,93,0.00,,---,0.00,VWS V14.01,2013-06-11 14:55:00,
2013-06-11 11:00:00,68.9,66.8,29.64,ENE,68,0.0,0.0,93,0.00,,---,0.00,VWS V14.01,2013-06-11 15:00:00,
2013-06-11 11:05:00,68.7,66.3,29.64,SE,135,0.0,0.0,92,0.00,,---,0.00,VWS V14.01,2013-06-11 15:05:00,
2013-06-11 11:10:00,68.7,66.3,29.64,NNE,22,0.0,0.0,92,0.00,,---,0.00,VWS V14.01,2013-06-11 15:10:00,
2013-06-11 11:15:00,68.5,66.1,29.65,SW,225,1.5,1.5,92,0.00,,---,0.00,VWS V14.01,2013-06-11 15:15:00,
2013-06-11 11:20:00,68.1,65.7,29.65,NNE,22,0.0,0.0,92,0.00,,---,0.00,VWS V14.01,2013-06-11 15:20:00,
2013-06-11 11:25:00,67.8,65.1,29.65,WSW,248,3.1,3.1,91,0.00,,---,0.00,VWS V14.01,2013-06-11 15:25:00,
2013-06-11 11:30:00,67.8,65.1,29.65,North,0,0.0,0.0,91,0.00,,---,0.00,VWS V14.01,2013-06-11 15:30:00,
2013-06-11 11:35:00,67.8,65.1,29.64,NW,315,0.0,0.0,91,0.00,,---,0.00,VWS V14.01,2013-06-11 15:35:00,
2013-06-11 11:40:00,67.8,65.1,29.64,SSW,202,0.0,0.0,91,0.00,,---,0.00,VWS V14.01,2013-06-11 15:40:00,
2013-06-11 11:45:00,67.6,64.6,29.64,West,270,0.0,0.0,90,0.00,,---,0.00,VWS V14.01,2013-06-11 15:45:00,
2013-06-11 11:50:00,67.8,64.8,29.64,WSW,248,0.0,0.0,90,0.00,,---,0.00,VWS V14.01,2013-06-11 15:50:00,
2013-06-11 11:55:00,68.1,65.1,29.64,WNW,292,2.4,2.4,90,0.00,,---,0.00,VWS V14.01,2013-06-11 15:55:00,
2013-06-11 12:00:00,68.3,64.9,29.64,WNW,292,0.0,0.0,89,0.00,,---,0.00,VWS V14.01,2013-06-11 16:00:00,
2013-06-11 12:05:00,68.3,64.9,29.64,NW,315,0.0,0.0,89,0.00,,---,0.00,VWS V14.01,2013-06-11 16:05:00,
2013-06-11 12:10:00,68.5,65.1,29.64,North,0,0.0,0.0,89,0.00,,---,0.00,VWS V14.01,2013-06-11 16:10:00,
2013-06-11 12:15:00,68.5,65.1,29.64,WNW,292,0.0,0.0,89,0.00,,---,0.00,VWS V14.01,2013-06-11 16:15:00,
2013-06-11 12:20:00,68.7,65.3,29.64,East,90,0.0,0.0,89,0.00,,---,0.00,VWS V14.01,2013-06-11 16:20:00,
2013-06-11 12:25:00,68.7,65.0,29.64,South,180,0.0,0.0,88,0.00,,---,0.00,VWS V14.01,2013-06-11 16:25:00,
2013-06-11 12:30:00,68.9,65.2,29.64,SSW,202,0.0,0.0,88,0.00,,---,0.00,VWS V14.01,2013-06-11 16:30:00,
2013-06-11 12:35:00,68.7,65.0,29.64,NE,45,0.0,0.0,88,0.00,,---,0.00,VWS V14.01,2013-06-11 16:35:00,
2013-06-11 12:40:00,68.7,64.7,29.64,NNE,22,2.4,2.4,87,0.00,,---,0.00,VWS V14.01,2013-06-11 16:40:00,
2013-06-11 12:45:00,69.0,65.0,29.64,ESE,112,1.1,1.1,87,0.00,,---,0.00,VWS V14.01,2013-06-11 16:45:00,
2013-06-11 12:50:00,69.0,65.0,29.64,WNW,292,1.7,1.7,87,0.00,,---,0.00,VWS V14.01,2013-06-11 16:50:00,
2013-06-11 12:55:00,69.0,64.6,29.64,South,180,0.0,0.0,86,0.00,,---,0.00,VWS V14.01,2013-06-11 16:55:00,
2013-06-11 13:00:00,69.0,64.6,29.64,East,90,0.0,0.0,86,0.00,,---,0.00,VWS V14.01,2013-06-11 17:00:00,
2013-06-11 13:05:00,68.9,64.6,29.64,WSW,248,0.0,0.0,86,0.00,,---,0.00,VWS V14.01,2013-06-11 17:05:00,
2013-06-11 13:10:00,69.0,64.6,29.64,NW,315,0.0,0.0,86,0.00,,---,0.00,VWS V14.01,2013-06-11 17:10:00,
2013-06-11 13:15:00,69.0,64.6,29.64,WSW,248,0.0,0.0,86,0.00,,---,0.00,VWS V14.01,2013-06-11 17:15:00,
2013-06-11 13:20:00,69.0,64.6,29.64,WSW,248,0.0,0.0,86,0.00,,---,0.00,VWS V14.01,2013-06-11 17:20:00,
2013-06-11 13:25:00,69.4,65.0,29.64,NNW,338,0.0,0.0,86,0.00,,---,0.00,VWS V14.01,2013-06-11 17:25:00,
2013-06-11 13:30:00,69.4,64.7,29.64,NNE,22,0.0,0.0,85,0.00,,---,0.00,VWS V14.01,2013-06-11 17:30:00,
2013-06-11 13:35:00,69.6,64.9,29.64,ESE,112,0.0,0.0,85,0.00,,---,0.00,VWS V14.01,2013-06-11 17:35:00,
2013-06-11 13:40:00,70.1,65.4,29.63,East,90,0.0,0.0,85,0.00,,---,0.00,VWS V14.01,2013-06-11 17:40:00,
2013-06-11 13:45:00,70.3,65.2,29.64,WSW,248,0.0,0.0,84,0.00,,---,0.00,VWS V14.01,2013-06-11 17:45:00,
2013-06-11 13:50:00,70.3,64.9,29.63,NE,45,0.0,0.0,83,0.00,,---,0.00,VWS V14.01,2013-06-11 17:50:00,
2013-06-11 13:55:00,70.3,64.6,29.63,NNW,338,0.0,0.0,82,0.00,,---,0.00,VWS V14.01,2013-06-11 17:55:00,
2013-06-11 14:00:00,70.1,64.4,29.63,WSW,248,0.0,0.0,82,0.00,,---,0.00,VWS V14.01,2013-06-11 18:00:00,
2013-06-11 14:05:00,69.9,64.2,29.63,South,180,0.0,0.0,82,0.00,,---,0.00,VWS V14.01,2013-06-11 18:05:00,
2013-06-11 14:10:00,69.9,64.2,29.63,East,90,0.0,0.0,82,0.00,,---,0.00,VWS V14.01,2013-06-11 18:10:00,
2013-06-11 14:15:00,69.9,64.2,29.63,ENE,68,0.0,0.0,82,0.00,,---,0.00,VWS V14.01,2013-06-11 18:15:00,
2013-06-11 14:20:00,69.9,64.2,29.63,South,180,0.0,0.0,82,0.00,,---,0.00,VWS V14.01,2013-06-11 18:20:00,
2013-06-11 14:25:00,69.9,64.2,29.63,NW,315,0.0,0.0,82,0.00,,---,0.00,VWS V14.01,2013-06-11 18:25:00,
2013-06-11 14:30:00,69.9,64.2,29.63,WNW,292,1.7,1.7,82,0.00,,---,0.00,VWS V14.01,2013-06-11 18:30:00,
2013-06-11 14:35:00,69.9,64.2,29.63,North,0,0.0,0.0,82,0.00,,---,0.00,VWS V14.01,2013-06-11 18:35:00,
2013-06-11 14:40:00,69.8,64.1,29.62,NW,315,0.0,0.0,82,0.00,,---,0.00,VWS V14.01,2013-06-11 18:40:00,
2013-06-11 14:45:00,69.8,64.1,29.62,ESE,112,0.0,0.0,82,0.00,,---,0.00,VWS V14.01,2013-06-11 18:45:00,
2013-06-11 14:50:00,69.9,64.2,29.62,East,90,0.0,0.0,82,0.00,,---,0.00,VWS V14.01,2013-06-11 18:50:00,
2013-06-11 14:55:00,70.1,64.4,29.62,ESE,112,0.0,0.0,82,0.00,,---,0.00,VWS V14.01,2013-06-11 18:55:00,
2013-06-11 15:00:00,70.3,64.6,29.61,WNW,292,0.0,0.0,82,0.00,,---,0.00,VWS V14.01,2013-06-11 19:00:00,
2013-06-11 15:05:00,70.5,64.8,29.61,ESE,112,0.0,0.0,82,0.00,,---,0.00,VWS V14.01,2013-06-11 19:05:00,
2013-06-11 15:10:00,70.5,64.4,29.61,SE,135,0.0,0.0,81,0.00,,---,0.00,VWS V14.01,2013-06-11 19:10:00,
2013-06-11 15:15:00,70.5,64.4,29.61,North,0,0.0,0.0,81,0.00,,---,0.00,VWS V14.01,2013-06-11 19:15:00,
2013-06-11 15:20:00,70.5,64.4,29.61,WNW,292,2.6,2.6,81,0.00,,---,0.00,VWS V14.01,2013-06-11 19:20:00,
2013-06-11 15:25:00,70.5,64.4,29.60,NW,315,0.0,0.0,81,0.00,,---,0.00,VWS V14.01,2013-06-11 19:25:00,
2013-06-11 15:30:00,70.5,64.4,29.60,NNW,338,0.0,0.0,81,0.00,,---,0.00,VWS V14.01,2013-06-11 19:30:00,
2013-06-11 15:35:00,70.5,64.4,29.60,NNW,338,0.0,0.0,81,0.00,,---,0.00,VWS V14.01,2013-06-11 19:35:00,
2013-06-11 15:40:00,70.5,64.4,29.60,NNW,338,1.5,1.5,81,0.00,,---,0.00,VWS V14.01,2013-06-11 19:40:00,
2013-06-11 15:45:00,70.5,64.0,29.60,NNW,338,0.0,0.0,80,0.00,,---,0.00,VWS V14.01,2013-06-11 19:45:00,
2013-06-11 15:50:00,70.3,63.8,29.60,WNW,292,0.0,0.0,80,0.00,,---,0.00,VWS V14.01,2013-06-11 19:50:00,
2013-06-11 15:55:00,70.1,64.0,29.60,NW,315,0.0,0.0,81,0.00,,---,0.00,VWS V14.01,2013-06-11 19:55:00,
2013-06-11 16:00:00,69.9,63.8,29.60,NNW,338,0.0,0.0,81,0.00,,---,0.00,VWS V14.01,2013-06-11 20:00:00,
2013-06-11 16:05:00,69.9,63.8,29.59,NNE,22,0.0,0.0,81,0.00,,---,0.00,VWS V14.01,2013-06-11 20:05:00,
2013-06-11 16:10:00,69.8,64.1,29.59,NW,315,0.0,0.0,82,0.00,,---,0.00,VWS V14.01,2013-06-11 20:10:00,
2013-06-11 16:15:00,69.8,64.1,29.59,SE,135,0.0,0.0,82,0.00,,---,0.00,VWS V14.01,2013-06-11 20:15:00,
2013-06-11 16:20:00,69.9,64.2,29.59,South,180,0.0,0.0,82,0.00,,---,0.00,VWS V14.01,2013-06-11 20:20:00,
2013-06-11 16:25:00,69.9,64.2,29.59,WSW,248,1.7,1.7,82,0.00,,---,0.00,VWS V14.01,2013-06-11 20:25:00,
2013-06-11 16:30:00,70.1,64.4,29.59,WNW,292,0.0,0.0,82,0.00,,---,0.00,VWS V14.01,2013-06-11 20:30:00,
2013-06-11 16:35:00,70.3,64.2,29.58,NNW,338,0.0,0.0,81,0.00,,---,0.00,VWS V14.01,2013-06-11 20:35:00,
2013-06-11 16:40:00,70.7,64.2,29.57,NW,315,3.1,3.1,80,0.00,,---,0.00,VWS V14.01,2013-06-11 20:40:00,
2013-06-11 16:45:00,70.8,64.3,29.58,SSE,158,0.0,0.0,80,0.00,,---,0.00,VWS V14.01,2013-06-11 20:45:00,
2013-06-11 16:50:00,70.8,64.0,29.58,NW,315,0.0,2.0,79,0.00,,---,0.00,VWS V14.01,2013-06-11 20:50:00,
2013-06-11 16:55:00,70.7,63.5,29.58,NNW,338,0.0,0.0,78,0.00,,---,0.00,VWS V14.01,2013-06-11 20:55:00,
2013-06-11 17:00:00,70.3,63.1,29.58,SE,135,0.0,0.0,78,0.00,,---,0.00,VWS V14.01,2013-06-11 21:00:00,
2013-06-11 17:05:00,69.6,62.1,29.58,South,180,0.0,0.0,77,0.00,,---,0.00,VWS V14.01,2013-06-11 21:05:00,
2013-06-11 17:10:00,68.7,61.2,29.58,ESE,112,0.0,0.0,77,0.00,,---,0.00,VWS V14.01,2013-06-11 21:10:00,
2013-06-11 17:15:00,68.1,61.0,29.58,ENE,68,0.0,0.0,78,0.00,,---,0.00,VWS V14.01,2013-06-11 21:15:00,
2013-06-11 17:20:00,67.6,60.5,29.57,ESE,112,0.0,0.0,78,0.00,,---,0.00,VWS V14.01,2013-06-11 21:20:00,
2013-06-11 17:25:00,66.9,60.2,29.57,NNE,22,0.0,0.0,79,0.00,,---,0.00,VWS V14.01,2013-06-11 21:25:00,
2013-06-11 17:30:00,66.7,60.3,29.57,ESE,112,0.0,0.0,80,0.00,,---,0.00,VWS V14.01,2013-06-11 21:30:00,
2013-06-11 17:35:00,66.5,60.5,29.56,East,90,0.0,0.0,81,0.00,,---,0.00,VWS V14.01,2013-06-11 21:35:00,
2013-06-11 17:40:00,66.3,60.0,29.56,ESE,112,0.0,0.0,80,0.00,,---,0.00,VWS V14.01,2013-06-11 21:40:00,
2013-06-11 17:45:00,65.8,59.5,29.56,SW,225,0.0,0.0,80,0.00,,---,0.00,VWS V14.01,2013-06-11 21:45:00,
2013-06-11 17:50:00,65.4,59.1,29.57,North,0,0.0,0.0,80,0.00,,---,0.00,VWS V14.01,2013-06-11 21:50:00,
2013-06-11 17:55:00,64.7,58.4,29.57,West,270,0.6,0.6,80,0.00,,---,0.00,VWS V14.01,2013-06-11 21:55:00,
2013-06-11 18:00:00,64.2,58.3,29.57,South,180,2.9,2.9,81,0.00,,---,0.00,VWS V14.01,2013-06-11 22:00:00,
2013-06-11 18:05:00,63.6,57.7,29.57,SSW,202,0.6,0.6,81,0.00,,---,0.00,VWS V14.01,2013-06-11 22:05:00,
2013-06-11 18:10:00,62.7,57.1,29.57,SSE,158,0.0,0.0,82,0.00,,---,0.00,VWS V14.01,2013-06-11 22:10:00,
2013-06-11 18:15:00,62.2,57.0,29.57,East,90,0.0,0.0,83,0.00,,---,0.00,VWS V14.01,2013-06-11 22:15:00,
2013-06-11 18:20:00,62.0,56.8,29.57,SE,135,0.0,0.0,83,0.00,,---,0.00,VWS V14.01,2013-06-11 22:20:00,
2013-06-11 18:25:00,61.5,57.0,29.56,ENE,68,0.0,0.0,85,0.00,,---,0.00,VWS V14.01,2013-06-11 22:25:00,
2013-06-11 18:30:00,61.1,56.6,29.56,WNW,292,0.0,0.0,85,0.00,,---,0.00,VWS V14.01,2013-06-11 22:30:00,
2013-06-11 18:35:00,60.9,56.4,29.56,ESE,112,0.0,0.0,85,0.00,,---,0.00,VWS V14.01,2013-06-11 22:35:00,
2013-06-11 18:40:00,60.4,55.9,29.56,NNE,22,0.0,0.0,85,0.00,,---,0.00,VWS V14.01,2013-06-11 22:40:00,
2013-06-11 18:45:00,60.0,55.8,29.56,WSW,248,0.0,0.0,86,0.00,,---,0.00,VWS V14.01,2013-06-11 22:45:00,
2013-06-11 18:50:00,59.9,55.7,29.56,SW,225,0.0,0.0,86,0.00,,---,0.00,VWS V14.01,2013-06-11 22:50:00,
2013-06-11 18:55:00,59.3,55.1,29.56,SE,135,0.0,0.0,86,0.00,,---,0.00,VWS V14.01,2013-06-11 22:55:00,
2013-06-11 19:00:00,59.0,54.8,29.55,WSW,248,0.0,0.0,86,0.00,,---,0.00,VWS V14.01,2013-06-11 23:00:00,
2013-06-11 19:05:00,58.8,55.0,29.56,South,180,0.0,0.0,87,0.00,,---,0.00,VWS V14.01,2013-06-11 23:05:00,
2013-06-11 19:10:00,58.6,54.4,29.55,SE,135,3.1,3.1,86,0.00,,---,0.00,VWS V14.01,2013-06-11 23:10:00,
2013-06-11 19:15:00,58.1,53.9,29.55,SE,135,0.0,0.0,86,0.00,,---,0.00,VWS V14.01,2013-06-11 23:15:00,
2013-06-11 19:20:00,57.9,54.1,29.56,NW,315,0.0,0.0,87,0.00,,---,0.00,VWS V14.01,2013-06-11 23:20:00,
2013-06-11 19:25:00,57.9,54.1,29.56,NW,315,0.0,0.0,87,0.00,,---,0.00,VWS V14.01,2013-06-11 23:25:00,
2013-06-11 19:30:00,57.9,54.4,29.57,NW,315,1.7,1.7,88,0.00,,---,0.00,VWS V14.01,2013-06-11 23:30:00,
2013-06-11 19:35:00,57.7,54.2,29.55,ESE,112,0.0,0.0,88,0.00,,---,0.00,VWS V14.01,2013-06-11 23:35:00,
2013-06-11 19:40:00,57.5,54.0,29.54,North,0,0.6,0.6,88,0.00,,---,0.00,VWS V14.01,2013-06-11 23:40:00,
2013-06-11 19:45:00,57.3,53.8,29.54,NNW,338,1.7,1.7,88,0.00,,---,0.00,VWS V14.01,2013-06-11 23:45:00,
2013-06-11 19:50:00,57.3,53.8,29.54,NNW,338,0.0,0.0,88,0.00,,---,0.00,VWS V14.01,2013-06-11 23:50:00,
2013-06-11 19:55:00,57.0,53.5,29.53,SW,225,1.5,1.5,88,0.00,,---,0.00,VWS V14.01,2013-06-11 23:55:00,
2013-06-11 20:00:00,56.8,53.3,29.53,SSE,158,1.5,1.5,88,0.00,,---,0.00,VWS V14.01,2013-06-12 00:00:00,
2013-06-11 20:05:00,56.8,53.3,29.53,South,180,2.4,2.4,88,0.00,,---,0.00,VWS V14.01,2013-06-12 00:05:00,
2013-06-11 20:10:00,56.4,52.9,29.53,NNE,22,0.0,0.0,88,0.00,,---,0.00,VWS V14.01,2013-06-12 00:10:00,
2013-06-11 20:15:00,56.4,53.2,29.52,ENE,68,0.0,0.0,89,0.00,,---,0.00,VWS V14.01,2013-06-12 00:15:00,
2013-06-11 20:20:00,56.4,53.2,29.53,NNW,338,0.0,0.0,89,0.00,,---,0.00,VWS V14.01,2013-06-12 00:20:00,
2013-06-11 20:25:00,56.3,53.1,29.52,SSW,202,0.0,0.0,89,0.00,,---,0.00,VWS V14.01,2013-06-12 00:25:00,
2013-06-11 20:30:00,56.3,53.1,29.52,SE,135,0.0,0.0,89,0.00,,---,0.00,VWS V14.01,2013-06-12 00:30:00,
2013-06-11 20:35:00,56.1,52.9,29.51,North,0,0.0,0.0,89,0.00,,---,0.00,VWS V14.01,2013-06-12 00:35:00,
2013-06-11 20:40:00,56.1,52.9,29.52,WNW,292,0.0,0.0,89,0.00,,---,0.00,VWS V14.01,2013-06-12 00:40:00,
2013-06-11 20:45:00,56.1,52.9,29.55,NW,315,2.0,2.0,89,0.00,,---,0.00,VWS V14.01,2013-06-12 00:45:00,
2013-06-11 20:50:00,56.3,53.1,29.54,SSE,158,0.0,0.0,89,0.00,,---,0.00,VWS V14.01,2013-06-12 00:50:00,
2013-06-11 20:55:00,56.1,53.2,29.54,ENE,68,1.7,1.7,90,0.00,,---,0.00,VWS V14.01,2013-06-12 00:55:00,
2013-06-11 21:00:00,56.1,53.2,29.54,WNW,292,1.5,1.5,90,0.00,,---,0.00,VWS V14.01,2013-06-12 01:00:00,
2013-06-11 21:05:00,55.9,53.0,29.54,SSW,202,0.0,0.0,90,0.00,,---,0.00,VWS V14.01,2013-06-12 01:05:00,
2013-06-11 21:10:00,55.9,53.0,29.54,SSE,158,0.0,0.0,90,0.00,,---,0.00,VWS V14.01,2013-06-12 01:10:00,
2013-06-11 21:15:00,55.9,53.0,29.54,ENE,68,0.0,0.0,90,0.00,,---,0.00,VWS V14.01,2013-06-12 01:15:00,
2013-06-11 21:20:00,55.7,52.8,29.55,NW,315,1.1,1.1,90,0.00,,---,0.00,VWS V14.01,2013-06-12 01:20:00,
2013-06-11 21:25:00,55.7,52.8,29.56,NW,315,0.0,0.0,90,0.00,,---,0.00,VWS V14.01,2013-06-12 01:25:00,
2013-06-11 21:30:00,55.9,53.3,29.56,East,90,0.0,0.0,91,0.00,,---,0.00,VWS V14.01,2013-06-12 01:30:00,
2013-06-11 21:35:00,55.9,53.3,29.56,SW,225,0.0,0.0,91,0.00,,---,0.00,VWS V14.01,2013-06-12 01:35:00,
2013-06-11 21:40:00,55.9,53.3,29.57,NNW,338,0.0,0.0,91,0.00,,---,0.00,VWS V14.01,2013-06-12 01:40:00,
2013-06-11 21:45:00,55.9,53.3,29.57,SSW,202,0.0,0.0,91,0.00,,---,0.00,VWS V14.01,2013-06-12 01:45:00,
2013-06-11 21:50:00,55.9,53.3,29.56,WNW,292,0.0,0.0,91,0.00,,---,0.00,VWS V14.01,2013-06-12 01:50:00,
2013-06-11 21:55:00,55.9,53.3,29.57,WSW,248,0.0,0.0,91,0.00,,---,0.00,VWS V14.01,2013-06-12 01:55:00,
2013-06-11 22:00:00,55.9,53.3,29.57,ENE,68,0.0,0.0,91,0.00,,---,0.00,VWS V14.01,2013-06-12 02:00:00,
2013-06-11 22:05:00,55.9,53.3,29.57,WSW,248,0.0,0.0,91,0.00,,---,0.00,VWS V14.01,2013-06-12 02:05:00,
2013-06-11 22:10:00,55.9,53.3,29.57,ESE,112,0.0,0.0,91,0.00,,---,0.00,VWS V14.01,2013-06-12 02:10:00,
2013-06-11 22:15:00,55.9,53.3,29.56,South,180,0.0,0.0,91,0.00,,---,0.00,VWS V14.01,2013-06-12 02:15:00,
2013-06-11 22:20:00,55.9,53.3,29.55,NNW,338,0.0,0.0,91,0.00,,---,0.00,VWS V14.01,2013-06-12 02:20:00,
2013-06-11 22:25:00,55.7,53.1,29.55,NE,45,0.0,0.0,91,0.00,,---,0.00,VWS V14.01,2013-06-12 02:25:00,
2013-06-11 22:30:00,55.7,52.8,29.55,West,270,0.0,0.0,90,0.00,,---,0.00,VWS V14.01,2013-06-12 02:30:00,
2013-06-11 22:35:00,55.7,52.8,29.56,NNW,338,0.0,0.0,90,0.00,,---,0.00,VWS V14.01,2013-06-12 02:35:00,
2013-06-11 22:40:00,55.5,52.6,29.57,WSW,248,0.0,0.0,90,0.00,,---,0.00,VWS V14.01,2013-06-12 02:40:00,
2013-06-11 22:45:00,55.5,52.6,29.57,WSW,248,0.0,0.0,90,0.00,,---,0.00,VWS V14.01,2013-06-12 02:45:00,
2013-06-11 22:50:00,55.5,52.6,29.57,WSW,248,0.0,0.0,90,0.00,,---,0.00,VWS V14.01,2013-06-12 02:50:00,
2013-06-11 22:55:00,55.5,52.6,29.57,West,270,0.0,0.0,90,0.00,,---,0.00,VWS V14.01,2013-06-12 02:55:00,
2013-06-11 23:00:00,55.7,52.8,29.56,West,270,0.0,0.0,90,0.00,,---,0.00,VWS V14.01,2013-06-12 03:00:00,
2013-06-11 23:05:00,55.7,52.8,29.56,West,270,0.0,0.0,90,0.00,,---,0.00,VWS V14.01,2013-06-12 03:05:00,
2013-06-11 23:10:00,55.7,53.1,29.56,SW,225,0.0,0.0,91,0.00,,---,0.00,VWS V14.01,2013-06-12 03:10:00,
2013-06-11 23:15:00,55.7,53.1,29.57,WNW,292,0.0,0.0,91,0.00,,---,0.00,VWS V14.01,2013-06-12 03:15:00,
2013-06-11 23:20:00,55.7,53.1,29.56,NNE,22,0.0,0.0,91,0.00,,---,0.00,VWS V14.01,2013-06-12 03:20:00,
2013-06-11 23:25:00,55.7,53.1,29.56,SSW,202,0.0,0.0,91,0.00,,---,0.00,VWS V14.01,2013-06-12 03:25:00,
2013-06-11 23:30:00,55.7,53.1,29.57,WNW,292,0.0,0.0,91,0.00,,---,0.00,VWS V14.01,2013-06-12 03:30:00,
2013-06-11 23:35:00,55.7,53.1,29.56,NW,315,0.0,0.0,91,0.00,,---,0.00,VWS V14.01,2013-06-12 03:35:00,
2013-06-11 23:40:00,55.7,53.1,29.55,NNW,338,0.0,0.0,91,0.00,,---,0.00,VWS V14.01,2013-06-12 03:40:00,
2013-06-11 23:45:00,55.7,52.8,29.55,NNW,338,0.0,0.0,90,0.00,,---,0.00,VWS V14.01,2013-06-12 03:45:00,
2013-06-11 23:50:00,55.7,53.1,29.55,NNW,338,0.0,0.0,91,0.00,,---,0.00,VWS V14.01,2013-06-12 03:50:00,
2013-06-11 23:55:00,55.5,52.9,29.55,NNW,338,0.0,0.0,91,0.00,,---,0.00,VWS V14.01,2013-06-12 03:55:00,